createdAt,value
2018-04-06T00:00:52.418Z,15.55
2018-04-06T00:03:19.998Z,16.20
2018-04-06T00:05:47.568Z,11.38
2018-04-06T00:08:15.915Z,17.85
2018-04-06T00:10:43.493Z,12.68
2018-04-06T00:13:11.046Z,14.05
2018-04-06T00:15:38.617Z,19.60
2018-04-06T00:18:06.218Z,11.70
2018-04-06T00:20:33.789Z,8.77
2018-04-06T00:23:01.377Z,12.13
2018-04-06T00:25:28.934Z,9.48
2018-04-06T00:27:56.509Z,12.52
2018-04-06T00:30:24.199Z,6.90
2018-04-06T00:32:51.949Z,9.65
2018-04-06T00:35:19.612Z,11.75
2018-04-06T00:37:47.176Z,7.22
2018-04-06T00:40:14.774Z,11.10
2018-04-06T00:42:42.379Z,10.95
2018-04-06T00:45:09.985Z,14.55
2018-04-06T00:47:37.611Z,10.38
2018-04-06T00:50:05.296Z,12.02
2018-04-06T00:52:32.909Z,9.85
2018-04-06T00:55:00.468Z,11.73
2018-04-06T00:57:27.999Z,13.18
2018-04-06T00:59:55.692Z,19.20
2018-04-06T01:02:23.349Z,14.60
2018-04-06T01:04:51.018Z,10.45
2018-04-06T01:07:18.687Z,14.95
2018-04-06T01:09:46.235Z,11.18
2018-04-06T01:12:13.805Z,9.10
2018-04-06T01:14:41.380Z,15.80
2018-04-06T01:17:08.948Z,12.80
2018-04-06T01:19:36.592Z,6.47
2018-04-06T01:22:04.122Z,6.78
2018-04-06T01:24:31.739Z,8.45
2018-04-06T01:26:59.475Z,10.00
2018-04-06T01:29:27.070Z,9.23
2018-04-06T01:31:54.637Z,15.02
2018-04-06T01:34:22.224Z,10.48
2018-04-06T01:36:49.930Z,7.68
2018-04-06T01:39:17.517Z,11.23
2018-04-06T01:41:45.105Z,10.32
2018-04-06T01:44:12.707Z,7.70
2018-04-06T01:46:41.003Z,14.50
2018-04-06T01:49:08.543Z,12.40
2018-04-06T01:51:36.856Z,11.65
2018-04-06T01:54:04.448Z,16.70
2018-04-06T01:56:31.982Z,14.15
2018-04-06T01:58:59.572Z,19.98
2018-04-06T02:01:27.130Z,10.05
2018-04-06T02:03:54.742Z,15.10
2018-04-06T02:06:23.080Z,15.45
2018-04-06T02:08:50.652Z,8.32
2018-04-06T02:11:18.266Z,7.10
2018-04-06T02:13:45.814Z,8.18
2018-04-06T02:16:14.135Z,10.10
2018-04-06T02:18:41.721Z,14.20
2018-04-06T02:21:09.264Z,12.85
2018-04-06T02:23:37.001Z,19.92
2018-04-06T02:26:05.328Z,17.40
2018-04-06T02:28:32.874Z,16.67
2018-04-06T02:31:00.432Z,8.82
2018-04-06T02:33:27.974Z,17.12
2018-04-06T02:35:56.267Z,4.22
2018-04-06T02:38:23.850Z,15.25
2018-04-06T02:40:51.398Z,13.43
2018-04-06T02:43:18.963Z,17.17
2018-04-06T02:45:46.536Z,12.13
2018-04-06T02:48:14.090Z,23.30
2018-04-06T02:50:41.651Z,14.87
2018-04-06T02:53:09.201Z,17.15
2018-04-06T02:55:37.668Z,20.40
2018-04-06T02:58:05.216Z,16.58
2018-04-06T03:00:32.779Z,18.37
2018-04-06T03:03:00.372Z,18.45
2018-04-06T03:05:27.921Z,12.63
2018-04-06T03:07:55.465Z,15.02
2018-04-06T03:10:23.008Z,14.02
2018-04-06T03:12:50.592Z,9.27
2018-04-06T03:15:18.147Z,11.80
2018-04-06T03:17:45.724Z,16.00
2018-04-06T03:20:13.298Z,11.85
2018-04-06T03:22:40.865Z,13.73
2018-04-06T03:25:08.416Z,16.20
2018-04-06T03:27:35.972Z,11.23
2018-04-06T03:30:04.314Z,13.10
2018-04-06T03:32:31.881Z,13.80
2018-04-06T03:34:59.436Z,13.77
2018-04-06T03:37:27.039Z,25.52
2018-04-06T03:39:54.627Z,11.65
2018-04-06T03:42:22.240Z,11.98
2018-04-06T03:44:49.813Z,14.05
2018-04-06T03:47:17.380Z,9.90
2018-04-06T03:49:44.952Z,20.90
2018-04-06T03:52:12.491Z,7.95
2018-04-06T03:54:40.799Z,29.10
2018-04-06T03:57:08.333Z,14.30
2018-04-06T03:59:36.636Z,17.50
2018-04-06T04:02:04.231Z,22.10
2018-04-06T04:04:31.772Z,15.20
2018-04-06T04:06:59.320Z,14.85
2018-04-06T04:09:26.901Z,8.50
2018-04-06T04:11:54.493Z,14.10
2018-04-06T04:14:22.068Z,11.80
2018-04-06T04:16:49.609Z,13.70
2018-04-06T04:19:17.163Z,11.60
2018-04-06T04:21:44.778Z,18.58
2018-04-06T04:24:12.328Z,18.90
2018-04-06T04:26:39.873Z,28.40
2018-04-06T04:29:07.441Z,12.40
2018-04-06T04:31:35.054Z,14.25
2018-04-06T04:34:02.712Z,20.37
2018-04-06T04:36:31.025Z,21.33
2018-04-06T04:38:58.563Z,8.15
2018-04-06T04:41:26.139Z,14.70
2018-04-06T04:43:53.712Z,19.10
2018-04-06T04:46:21.252Z,9.23
2018-04-06T04:48:48.815Z,17.67
2018-04-06T04:51:16.390Z,20.92
2018-04-06T04:53:44.002Z,10.50
2018-04-06T04:56:11.567Z,13.40
2018-04-06T04:58:39.140Z,11.40
2018-04-06T05:01:06.748Z,11.85
2018-04-06T05:03:34.339Z,18.17
2018-04-06T05:06:01.936Z,9.23
2018-04-06T05:08:29.517Z,15.00
2018-04-06T05:10:57.964Z,28.55
2018-04-06T05:13:25.656Z,14.40
2018-04-06T05:15:53.297Z,11.35
2018-04-06T05:18:20.909Z,24.67
2018-04-06T05:20:49.387Z,16.15
2018-04-06T05:23:17.691Z,8.38
2018-04-06T05:25:45.364Z,14.30
2018-04-06T05:28:12.922Z,16.35
2018-04-06T05:30:40.628Z,11.85
2018-04-06T05:33:08.185Z,15.40
2018-04-06T05:35:35.760Z,28.12
2018-04-06T05:38:03.549Z,15.00
2018-04-06T05:40:31.146Z,14.00
2018-04-06T05:42:58.745Z,11.55
2018-04-06T05:45:26.297Z,23.98
2018-04-06T05:47:53.976Z,20.20
2018-04-06T05:50:21.655Z,12.85
2018-04-06T05:52:49.261Z,16.00
2018-04-06T05:55:17.617Z,6.75
2018-04-06T05:57:45.171Z,22.05
2018-04-06T06:00:12.753Z,12.18
2018-04-06T06:02:40.372Z,20.80
2018-04-06T06:05:07.932Z,15.85
2018-04-06T06:07:35.488Z,19.52
2018-04-06T06:10:03.090Z,9.27
2018-04-06T06:12:30.634Z,19.08
2018-04-06T06:14:58.211Z,16.10
2018-04-06T06:17:25.764Z,11.93
2018-04-06T06:19:53.309Z,13.77
2018-04-06T06:22:20.863Z,25.23
2018-04-06T06:24:48.412Z,13.75
2018-04-06T06:27:16.707Z,26.90
2018-04-06T06:29:45.008Z,16.33
2018-04-06T06:32:12.573Z,20.75
2018-04-06T06:34:40.122Z,14.38
2018-04-06T06:37:07.665Z,13.80
2018-04-06T06:39:36.037Z,21.08
2018-04-06T06:42:03.602Z,17.25
2018-04-06T06:44:31.139Z,21.98
2018-04-06T06:46:58.702Z,18.08
2018-04-06T06:49:26.242Z,26.55
2018-04-06T06:51:53.804Z,24.10
2018-04-06T06:54:21.393Z,15.88
2018-04-06T06:56:48.989Z,12.77
2018-04-06T06:59:16.565Z,13.50
2018-04-06T07:01:44.877Z,21.50
2018-04-06T07:04:12.452Z,22.45
2018-04-06T07:06:40.014Z,20.45
2018-04-06T07:09:07.604Z,14.00
2018-04-06T07:11:35.316Z,15.98
2018-04-06T07:14:03.634Z,13.90
2018-04-06T07:16:31.827Z,15.50
2018-04-06T07:18:59.409Z,23.00
2018-04-06T07:21:27.706Z,8.00
2018-04-06T07:23:55.253Z,13.25
2018-04-06T07:26:22.818Z,11.90
2018-04-06T07:28:50.561Z,17.45
2018-04-06T07:31:18.775Z,13.75
2018-04-06T07:33:46.339Z,24.33
2018-04-06T07:36:13.905Z,12.90
2018-04-06T07:38:41.469Z,10.32
2018-04-06T07:41:09.017Z,12.95
2018-04-06T07:43:36.560Z,8.55
2018-04-06T07:46:04.160Z,15.85
2018-04-06T07:48:31.744Z,12.75
2018-04-06T07:51:00.821Z,13.15
2018-04-06T07:53:28.357Z,7.20
2018-04-06T07:55:55.910Z,16.48
2018-04-06T07:58:23.447Z,12.40
2018-04-06T08:00:51.006Z,3.72
2018-04-06T08:03:18.569Z,6.80
2018-04-06T08:05:46.122Z,15.48
2018-04-06T08:08:14.462Z,9.73
2018-04-06T08:10:42.046Z,12.32
2018-04-06T08:13:09.618Z,9.75
2018-04-06T08:15:37.169Z,8.02
2018-04-06T08:18:04.722Z,14.60
2018-04-06T08:20:33.045Z,13.40
2018-04-06T08:23:01.406Z,12.37
2018-04-06T08:25:28.953Z,9.05
2018-04-06T08:27:56.484Z,9.25
2018-04-06T08:30:24.026Z,8.60
2018-04-06T08:32:51.587Z,7.62
2018-04-06T08:35:19.924Z,9.15
2018-04-06T08:37:47.464Z,11.20
2018-04-06T08:40:15.041Z,9.77
2018-04-06T08:42:42.619Z,10.77
2018-04-06T08:45:10.199Z,12.20
2018-04-06T08:47:37.741Z,7.95
2018-04-06T08:50:05.308Z,13.32
2018-04-06T08:52:32.880Z,13.15
2018-04-06T08:55:00.449Z,10.32
2018-04-06T08:57:28.014Z,9.05
2018-04-06T08:59:55.589Z,7.20
2018-04-06T09:02:23.946Z,11.05
2018-04-06T09:04:51.526Z,7.72
2018-04-06T09:53:56.731Z,6.65
2018-04-06T09:56:24.309Z,9.55
2018-04-06T09:58:51.856Z,9.13
2018-04-06T10:01:19.422Z,8.30
2018-04-06T10:03:46.993Z,10.90
2018-04-06T10:06:14.584Z,12.40
2018-04-06T10:08:42.176Z,5.20
2018-04-06T10:11:10.544Z,5.80
2018-04-06T10:13:38.090Z,7.35
2018-04-06T10:25:56.393Z,4.50
2018-04-06T10:28:23.961Z,6.90
2018-04-06T10:30:51.537Z,8.65
2018-04-06T10:33:19.116Z,8.00
2018-04-06T10:35:46.703Z,3.85
2018-04-06T10:38:15.044Z,9.20
2018-04-06T10:40:42.623Z,2.62
2018-04-06T10:43:10.178Z,6.22
2018-04-06T10:48:04.866Z,5.00
2018-04-06T10:50:32.431Z,2.73
2018-04-06T10:53:00.008Z,3.95
2018-04-06T10:55:27.580Z,2.50
2018-04-06T10:57:55.119Z,3.08
2018-04-06T11:00:22.652Z,5.80
2018-04-06T11:02:50.197Z,6.43
2018-04-06T11:05:17.801Z,4.45
2018-04-06T11:07:46.135Z,8.55
2018-04-06T11:10:13.769Z,6.93
2018-04-06T11:12:41.351Z,4.65
2018-04-06T11:15:08.912Z,3.25
2018-04-06T11:17:36.476Z,6.30
2018-04-06T11:20:04.035Z,10.95
2018-04-06T11:22:31.606Z,6.75
2018-04-06T11:24:59.156Z,4.93
2018-04-06T11:27:26.710Z,5.05
2018-04-06T11:29:54.285Z,7.25
2018-04-06T11:32:21.861Z,5.60
2018-04-06T11:34:49.423Z,6.50
2018-04-06T11:37:16.982Z,5.03
2018-04-06T11:39:44.528Z,5.15
2018-04-06T11:42:12.102Z,7.37
2018-04-06T11:44:39.698Z,6.43
2018-04-06T11:47:07.248Z,4.78
2018-04-06T11:49:34.927Z,5.25
2018-04-06T11:52:02.459Z,5.30
2018-04-06T11:54:30.034Z,2.92
2018-04-06T11:56:57.605Z,8.48
2018-04-06T11:59:25.151Z,11.35
2018-04-06T12:01:52.727Z,7.62
2018-04-06T12:04:20.281Z,2.55
2018-04-06T12:06:47.866Z,6.60
2018-04-06T12:09:15.448Z,4.00
2018-04-06T12:11:43.025Z,5.37
2018-04-06T12:14:10.606Z,6.55
2018-04-06T12:16:38.949Z,7.78
2018-04-06T12:19:06.507Z,5.80
2018-04-06T12:21:34.081Z,4.32
2018-04-06T12:24:01.629Z,3.35
2018-04-06T12:26:29.212Z,3.60
2018-04-06T12:28:56.773Z,6.82
2018-04-06T12:31:24.315Z,4.68
2018-04-06T12:33:51.847Z,4.68
2018-04-06T12:36:20.185Z,6.50
2018-04-06T12:38:47.761Z,5.78
2018-04-06T12:41:15.393Z,7.60
2018-04-06T12:43:42.965Z,3.97
2018-04-06T12:46:10.500Z,1.65
2018-04-06T13:27:54.363Z,3.60
2018-04-06T13:35:16.955Z,5.10
2018-04-06T14:29:18.895Z,2.67
2018-04-06T14:31:46.442Z,6.75
2018-04-06T14:34:14.779Z,7.12
2018-04-06T14:36:42.342Z,5.60
2018-04-06T14:39:09.936Z,7.53
2018-04-06T14:41:37.496Z,9.80
2018-04-06T14:44:05.076Z,3.90
2018-04-06T14:53:54.722Z,8.70
2018-04-06T15:20:56.259Z,5.10
2018-04-06T17:28:39.768Z,5.50
2018-04-06T17:31:07.335Z,3.50
2018-04-06T17:33:35.693Z,14.00
2018-04-06T17:36:03.269Z,14.50
2018-04-06T17:38:30.845Z,4.12
2018-04-06T17:40:58.449Z,8.45
2018-04-06T17:43:26.011Z,8.17
2018-04-06T17:45:53.604Z,5.70
2018-04-06T17:48:21.152Z,11.98
2018-04-06T17:50:48.723Z,6.65
2018-04-06T17:53:16.299Z,10.40
2018-04-06T17:55:43.937Z,5.65
2018-04-06T17:58:11.502Z,8.80
2018-04-06T18:00:39.133Z,9.35
2018-04-06T18:03:06.691Z,14.03
2018-04-06T18:05:34.261Z,12.90
2018-04-06T18:08:01.839Z,9.15
2018-04-06T18:10:30.172Z,9.38
2018-04-06T18:12:57.722Z,10.90
2018-04-06T18:15:25.290Z,12.80
2018-04-06T18:17:52.863Z,11.32
2018-04-06T18:20:20.408Z,12.35
2018-04-06T18:22:48.009Z,18.15
2018-04-06T18:25:15.570Z,9.25
2018-04-06T18:27:43.137Z,11.68
2018-04-06T18:30:10.694Z,9.40
2018-04-06T18:32:38.262Z,10.75
2018-04-06T18:35:05.822Z,6.95
2018-04-06T18:37:33.378Z,18.20
2018-04-06T18:40:00.981Z,61.42
2018-04-06T18:42:28.593Z,61.65
2018-04-06T18:44:56.191Z,48.40
2018-04-06T18:47:23.806Z,49.45
2018-04-06T18:49:52.154Z,29.42
2018-04-06T18:52:19.724Z,24.33
2018-04-06T18:54:47.288Z,15.13
2018-04-06T18:57:14.905Z,12.37
2018-04-06T18:59:42.479Z,13.75
2018-04-06T19:02:10.128Z,17.25
2018-04-06T19:04:37.728Z,21.87
2018-04-06T19:07:05.380Z,36.03
2018-04-06T19:12:35.868Z,17.70
2018-04-06T19:15:03.452Z,7.50
2018-04-06T19:17:31.032Z,9.10
2018-04-06T19:19:59.405Z,12.32
2018-04-06T19:22:27.779Z,24.60
2018-04-06T19:24:55.699Z,30.15
2018-04-06T19:27:23.308Z,27.23
2018-04-06T19:29:51.642Z,26.02
2018-04-06T19:32:19.182Z,26.30
2018-04-06T19:34:46.851Z,27.10
2018-04-06T19:37:15.236Z,23.23
2018-04-06T19:39:43.589Z,25.40
2018-04-06T19:42:11.199Z,26.50
2018-04-06T19:44:39.639Z,29.30
2018-04-06T19:47:07.198Z,262.83
2018-04-06T19:49:34.813Z,480.02
2018-04-06T19:52:02.369Z,456.40
2018-04-06T19:54:29.919Z,432.70
2018-04-06T19:56:58.245Z,244.98
2018-04-06T19:59:25.792Z,222.88
2018-04-06T20:01:53.376Z,211.50
2018-04-06T20:04:20.915Z,188.00
2018-04-06T20:06:48.485Z,164.88
2018-04-06T20:09:16.031Z,113.18
2018-04-06T20:11:44.395Z,119.18
2018-04-06T20:14:12.752Z,109.40
2018-04-06T20:16:41.133Z,105.70
2018-04-06T20:19:08.693Z,104.25
2018-04-06T20:21:36.246Z,80.22
2018-04-06T20:24:03.824Z,70.05
2018-04-06T20:26:31.453Z,53.03
2018-04-06T20:28:59.042Z,53.90
2018-04-06T20:31:26.625Z,41.20
2018-04-06T20:33:55.905Z,45.15
2018-04-06T20:36:23.473Z,39.58
2018-04-06T20:38:51.048Z,39.55
2018-04-06T20:41:18.627Z,29.80
2018-04-06T20:43:46.192Z,78.68
2018-04-06T20:46:13.769Z,47.97
2018-04-06T20:48:41.331Z,37.60
2018-04-06T20:51:08.902Z,43.90
2018-04-06T20:53:37.216Z,43.45
2018-04-06T20:56:04.783Z,34.08
2018-04-06T20:58:32.349Z,15.57
2018-04-06T21:00:59.925Z,20.85
2018-04-06T21:03:27.494Z,20.17
2018-04-06T21:05:55.065Z,20.20
2018-04-06T21:08:22.618Z,16.50
2018-04-06T21:10:50.209Z,15.90
2018-04-06T21:13:18.595Z,13.93
2018-04-06T21:15:46.154Z,12.10
2018-04-06T21:18:13.730Z,14.13
2018-04-06T21:20:41.302Z,19.00
2018-04-06T21:23:08.855Z,22.75
2018-04-06T21:25:36.415Z,14.30
2018-04-06T21:28:03.964Z,22.05
2018-04-06T21:30:31.588Z,16.40
2018-04-06T21:32:59.159Z,16.45
2018-04-06T21:35:26.725Z,12.48
2018-04-06T21:37:54.289Z,12.52
2018-04-06T21:40:21.862Z,16.08
2018-04-06T21:42:49.428Z,24.00
2018-04-06T21:45:17.023Z,14.90
2018-04-06T21:47:44.665Z,14.13
2018-04-06T21:50:12.251Z,14.10
2018-04-06T21:52:39.827Z,19.25
2018-04-06T21:55:07.398Z,13.27
2018-04-06T21:57:34.954Z,17.60
2018-04-06T22:00:02.501Z,19.52
2018-04-06T22:02:30.082Z,14.77
2018-04-06T22:04:57.653Z,13.75
2018-04-06T22:07:25.212Z,17.58
2018-04-06T22:09:52.807Z,17.70
2018-04-06T22:12:21.142Z,17.10
2018-04-06T22:14:48.695Z,14.87
2018-04-06T22:17:16.242Z,12.18
2018-04-06T22:19:43.784Z,21.67
2018-04-06T22:22:12.110Z,14.68
2018-04-06T22:24:39.732Z,14.45
2018-04-06T22:27:08.067Z,16.23
2018-04-06T22:29:35.676Z,18.17
2018-04-06T22:32:04.017Z,15.65
2018-04-06T22:34:31.588Z,20.58
2018-04-06T22:36:59.127Z,14.18
2018-04-06T22:39:26.692Z,15.18
2018-04-06T22:41:54.260Z,15.35
2018-04-06T22:44:21.828Z,17.33
2018-04-06T22:46:49.401Z,16.80
2018-04-06T22:49:16.957Z,17.27
2018-04-06T22:51:44.545Z,13.80
2018-04-06T22:54:12.109Z,13.00
2018-04-06T22:56:39.647Z,16.15
2018-04-06T22:59:07.192Z,20.85
2018-04-06T23:01:34.769Z,11.75
2018-04-06T23:04:02.313Z,18.52
2018-04-06T23:06:29.882Z,16.55
2018-04-06T23:08:57.444Z,12.07
2018-04-06T23:11:24.996Z,18.42
2018-04-06T23:13:52.553Z,18.67
2018-04-06T23:16:20.944Z,13.65
2018-04-06T23:18:48.507Z,16.15
2018-04-06T23:21:16.052Z,18.17
2018-04-06T23:23:44.387Z,16.10
2018-04-06T23:26:11.947Z,14.18
2018-04-06T23:28:39.517Z,17.35
2018-04-06T23:31:07.117Z,20.23
2018-04-06T23:33:34.688Z,24.65
2018-04-06T23:36:03.005Z,19.30
2018-04-06T23:38:30.580Z,17.95
2018-04-06T23:40:58.117Z,26.20
2018-04-06T23:43:25.669Z,16.80
2018-04-06T23:45:53.208Z,15.05
2018-04-06T23:48:20.763Z,17.58
2018-04-06T23:50:48.328Z,14.43
2018-04-06T23:53:15.901Z,16.60
2018-04-06T23:55:43.484Z,14.75
2018-04-06T23:58:11.824Z,20.40
